Time;durP1;ratioP1;P1;durP2;ratioP2;P2;SDS_P1;SDS_P2;PMS_P1;PMS_P2;Temp;Humidity;BMP_temperature;BMP_pressure;BME280_temperature;BME280_humidity;BME280_pressure;Samples;Min_cycle;Max_cycle;Signal;HPM_P1;HPM_P2
2022/06/25 00:08:48;;;;;;;5.30;1.65;;;11.60;99.90;;;;;;20979784;28;20173;-51
2022/06/25 00:18:50;;;;;;;3.63;1.88;;;11.40;99.90;;;;;;20978391;28;20049;-51
2022/06/25 00:28:53;;;;;;;8.35;2.85;;;11.10;99.90;;;;;;20978055;28;20032;-47
2022/06/25 00:38:56;;;;;;;4.88;1.58;;;11.00;99.90;;;;;;20977156;28;20177;-54
2022/06/25 00:48:58;;;;;;;5.38;2.72;;;10.90;99.90;;;;;;20976747;28;20403;-51
2022/06/25 00:59:05;;;;;;;3.05;1.73;;;10.80;99.90;;;;;;21031035;28;20498;-47
2022/06/25 01:09:07;;;;;;;5.15;2.00;;;11.60;99.90;;;;;;21058690;28;20035;-54
2022/06/25 01:19:12;;;;;;;8.25;2.75;;;11.80;99.90;;;;;;21057785;28;20052;-51
2022/06/25 01:29:15;;;;;;;5.82;2.80;;;11.40;99.90;;;;;;21057665;28;20433;-47
2022/06/25 01:39:19;;;;;;;4.10;2.50;;;11.20;99.90;;;;;;21056393;28;20744;-51
2022/06/25 01:49:22;;;;;;;4.15;1.77;;;11.20;99.90;;;;;;21038518;28;20040;-50
2022/06/25 01:59:24;;;;;;;4.93;2.05;;;11.30;99.90;;;;;;20996397;28;20102;-50
2022/06/25 02:09:27;;;;;;;2.67;2.00;;;11.40;99.90;;;;;;20953686;28;20058;-53
2022/06/25 02:19:29;;;;;;;2.72;1.50;;;11.40;99.90;;;;;;20969311;28;20037;-49
2022/06/25 02:29:32;;;;;;;2.38;1.10;;;11.50;99.90;;;;;;20968771;28;20040;-48
2022/06/25 02:39:36;;;;;;;2.17;1.30;;;11.50;99.90;;;;;;20968098;28;20044;-52
2022/06/25 02:49:38;;;;;;;2.85;1.55;;;11.50;99.90;;;;;;20967566;28;20036;-55
2022/06/25 02:59:41;;;;;;;1.35;1.20;;;11.30;99.90;;;;;;21027428;28;20081;-52
2022/06/25 03:09:45;;;;;;;3.95;1.40;;;11.50;99.90;;;;;;21050047;28;20036;-47
2022/06/25 03:19:49;;;;;;;2.10;1.00;;;11.10;99.90;;;;;;21033469;28;20113;-51
2022/06/25 03:30:04;;;;;;;1.65;0.80;;;11.10;99.90;;;;;;21049420;28;20036;-51
2022/06/25 03:40:10;;;;;;;1.40;0.70;;;11.70;99.90;;;;;;21049203;28;20097;-52
2022/06/25 03:50:13;;;;;;;2.40;0.60;;;11.90;99.90;;;;;;21048769;28;20077;-52
2022/06/25 04:00:16;;;;;;;2.08;0.73;;;11.80;99.90;;;;;;20984261;28;20033;-52
2022/06/25 04:10:33;;;;;;;1.27;0.60;;;12.00;99.90;;;;;;20974446;28;20090;-55
2022/06/25 04:20:39;;;;;;;0.68;0.43;;;12.10;99.90;;;;;;20978662;28;20044;-48
2022/06/25 04:30:42;;;;;;;1.40;0.55;;;12.00;99.90;;;;;;20961415;28;20037;-47
2022/06/25 04:40:48;;;;;;;2.72;0.40;;;12.30;99.90;;;;;;20977846;28;20045;-52
2022/06/25 04:50:51;;;;;;;1.00;0.10;;;12.60;99.90;;;;;;20976690;28;20399;-50
2022/06/25 05:00:55;;;;;;;2.63;0.10;;;12.70;99.90;;;;;;21029975;28;20069;-55
2022/06/25 05:10:57;;;;;;;0.43;0.10;;;12.80;99.90;;;;;;21058768;28;20031;-52
2022/06/25 05:21:01;;;;;;;0.45;0.10;;;13.10;99.90;;;;;;21056598;28;20073;-52
2022/06/25 05:31:04;;;;;;;1.15;0.10;;;13.20;99.90;;;;;;21056986;28;20036;-53
2022/06/25 05:41:10;;;;;;;0.40;0.00;;;13.20;99.90;;;;;;21056006;28;20066;-48
2022/06/25 05:51:13;;;;;;;1.23;0.00;;;13.50;99.90;;;;;;21055397;28;20085;-50
2022/06/25 06:01:16;;;;;;;0.20;0.10;;;13.60;99.90;;;;;;20981746;28;20040;-54
2022/06/25 06:11:18;;;;;;;0.10;0.00;;;14.00;99.90;;;;;;20969941;28;20040;-56
2022/06/25 06:21:21;;;;;;;0.05;0.00;;;17.30;99.70;;;;;;20903415;28;20045;-55
2022/06/25 06:31:23;;;;;;;0.08;0.08;;;20.40;93.70;;;;;;20886133;28;20486;-57
2022/06/25 06:41:26;;;;;;;0.22;0.00;;;22.70;86.00;;;;;;20885356;28;20040;-55
2022/06/25 06:51:29;;;;;;;1.20;0.00;;;23.30;80.80;;;;;;20884847;28;20095;-58
2022/06/25 07:01:31;;;;;;;0.10;0.00;;;22.80;82.20;;;;;;20959045;28;20088;-58
2022/06/25 07:11:34;;;;;;;0.10;0.00;;;23.80;76.30;;;;;;20983007;28;20040;-58
2022/06/25 07:21:37;;;;;;;0.00;0.00;;;24.30;71.60;;;;;;20962353;28;20410;-58
2022/06/25 07:31:39;;;;;;;0.10;0.10;;;24.30;70.20;;;;;;20966055;28;20078;-59
2022/06/25 07:41:42;;;;;;;0.40;0.20;;;25.60;79.30;;;;;;20969923;28;20094;-58
2022/06/25 07:51:57;;;;;;;0.10;0.10;;;26.40;76.60;;;;;;20980891;28;20558;-59
2022/06/25 08:01:59;;;;;;;0.28;0.10;;;26.80;81.10;;;;;;20901730;28;20032;-59
2022/06/25 08:12:04;;;;;;;1.33;0.20;;;26.90;81.80;;;;;;20897144;28;20037;-57
2022/06/25 08:22:06;;;;;;;0.05;0.00;;;27.30;66.80;;;;;;20896070;28;20048;-58
2022/06/25 08:32:09;;;;;;;0.10;0.00;;;25.00;69.10;;;;;;20895311;28;20037;-59
2022/06/25 08:42:11;;;;;;;0.73;0.20;;;24.50;71.10;;;;;;20894461;28;20098;-60
2022/06/25 08:52:18;;;;;;;1.20;0.20;;;25.20;81.40;;;;;;20893771;28;20033;-60
2022/06/25 09:02:20;;;;;;;0.35;0.13;;;25.60;81.10;;;;;;20974515;28;20090;-58
2022/06/25 09:12:23;;;;;;;0.30;0.20;;;25.80;80.10;;;;;;20975230;28;20503;-56
2022/06/25 09:22:26;;;;;;;0.30;0.17;;;25.90;76.70;;;;;;20974088;28;20049;-60
2022/06/25 09:32:45;;;;;;;5.07;0.20;;;25.80;75.40;;;;;;20973237;28;20491;-58
2022/06/25 09:42:50;;;;;;;0.57;0.20;;;25.80;82.50;;;;;;20990479;28;20062;-60
2022/06/25 09:52:56;;;;;;;0.40;0.20;;;26.10;82.80;;;;;;20971275;28;20056;-61
2022/06/25 10:03:00;;;;;;;0.25;0.10;;;27.10;79.80;;;;;;20972646;28;20095;-61
2022/06/25 10:13:03;;;;;;;0.70;0.20;;;27.60;80.60;;;;;;20969880;28;20029;-61
2022/06/25 10:23:09;;;;;;;0.28;0.20;;;28.20;78.40;;;;;;20969736;28;20040;-59
2022/06/25 10:33:16;;;;;;;0.52;0.32;;;27.30;76.90;;;;;;20968663;28;20177;-59
2022/06/25 10:43:38;;;;;;;1.02;0.30;;;25.50;80.40;;;;;;20968350;28;20082;-60
2022/06/25 10:53:43;;;;;;;0.95;0.50;;;25.30;84.60;;;;;;20967384;28;20036;-59
2022/06/25 11:03:50;;;;;;;0.43;0.20;;;24.90;83.60;;;;;;20967267;28;20075;-59
2022/06/25 11:13:53;;;;;;;1.30;0.53;;;23.50;86.40;;;;;;20955740;28;20132;-59
2022/06/25 11:24:26;;;;;;;1.60;0.85;;;22.90;90.40;;;;;;20900486;28;20080;-60
2022/06/25 11:34:30;;;;;;;2.10;0.38;;;24.20;88.20;;;;;;20582052;28;20504;-61
2022/06/25 11:44:44;;;;;;;0.93;0.43;;;26.40;86.50;;;;;;20581680;28;20106;-61
2022/06/25 11:54:51;;;;;;;2.20;0.40;;;27.60;76.70;;;;;;20580737;28;20102;-61
2022/06/25 12:04:57;;;;;;;0.30;0.20;;;26.60;80.00;;;;;;20636267;28;20562;-60
2022/06/25 12:15:03;;;;;;;0.88;0.30;;;26.50;76.50;;;;;;20834685;28;20075;-59
2022/06/25 12:25:07;;;;;;;1.42;0.20;;;25.10;78.50;;;;;;20912151;28;20045;-59
2022/06/25 12:35:25;;;;;;;1.40;0.20;;;24.10;82.00;;;;;;20895145;28;20388;-60
2022/06/25 12:45:30;;;;;;;;;;;25.40;80.40;;;;;;20894601;28;20033;-61
2022/06/25 12:55:34;;;;;;;2.05;0.30;;;26.90;78.50;;;;;;20919292;28;20370;-61
2022/06/25 13:05:37;;;;;;;0.40;0.28;;;27.40;76.90;;;;;;20975728;28;20032;-62
2022/06/25 13:15:40;;;;;;;1.15;0.63;;;28.40;79.00;;;;;;20975062;28;20451;-62
2022/06/25 13:25:42;;;;;;;2.88;0.68;;;28.60;74.20;;;;;;20975582;28;20114;-61
2022/06/25 13:35:45;;;;;;;2.03;0.95;;;28.30;76.20;;;;;;20973361;28;20078;-59
2022/06/25 13:45:50;;;;;;;3.17;0.68;;;27.90;77.90;;;;;;20938705;28;20078;-61
2022/06/25 13:55:54;;;;;;;1.15;0.75;;;28.00;78.30;;;;;;20943467;28;20044;-61
2022/06/25 14:05:57;;;;;;;4.47;0.82;;;28.50;75.80;;;;;;20887620;28;20063;-61
2022/06/25 14:16:01;;;;;;;2.45;0.45;;;27.90;76.30;;;;;;20887350;28;20499;-61
2022/06/25 14:26:04;;;;;;;2.00;0.77;;;26.80;78.60;;;;;;20886980;28;20049;-60
2022/06/25 14:46:27;;;;;;;1.38;0.75;;;25.00;79.70;;;;;;20885910;28;20041;-59
2022/06/25 14:56:30;;;;;;;2.85;1.00;;;24.10;85.00;;;;;;20918239;28;20040;-57
2022/06/25 15:06:33;;;;;;;1.40;0.73;;;26.30;82.40;;;;;;20967681;28;20505;-59
2022/06/25 15:16:35;;;;;;;2.08;0.85;;;26.40;78.90;;;;;;20966902;28;20459;-59
2022/06/25 15:26:39;;;;;;;2.15;1.02;;;23.70;83.70;;;;;;20966967;28;20133;-59
2022/06/25 15:36:42;;;;;;;3.58;0.90;;;23.80;83.20;;;;;;20966781;28;20093;-60
2022/06/25 15:46:45;;;;;;;0.98;0.65;;;24.60;84.10;;;;;;20966496;28;20040;-59
2022/06/25 15:56:50;;;;;;;2.92;0.73;;;24.00;77.90;;;;;;20930131;28;20479;-71
2022/06/25 16:06:56;;;;;;;2.60;0.90;;;23.70;81.50;;;;;;20945632;28;20075;-59
2022/06/25 16:17:01;;;;;;;2.25;0.80;;;22.20;82.70;;;;;;20932939;28;20376;-59
2022/06/25 16:27:04;;;;;;;1.65;0.85;;;22.10;85.90;;;;;;20936482;28;20048;-58
2022/06/25 16:37:06;;;;;;;0.77;0.75;;;22.20;85.10;;;;;;20977987;28;20043;-57
2022/06/25 16:47:09;;;;;;;2.42;0.82;;;21.80;88.60;;;;;;20978056;28;20040;-54
2022/06/25 16:57:12;;;;;;;1.45;0.80;;;21.80;86.20;;;;;;20937642;28;20041;-58
2022/06/25 17:07:15;;;;;;;1.63;1.15;;;20.70;90.20;;;;;;20893332;28;20090;-58
2022/06/25 17:17:18;;;;;;;2.65;1.20;;;19.90;91.40;;;;;;20892315;28;20440;-53
2022/06/25 17:27:21;;;;;;;2.22;1.35;;;19.30;92.50;;;;;;20875007;28;20049;-51
2022/06/25 17:37:24;;;;;;;2.45;1.10;;;18.80;93.60;;;;;;20808492;28;20037;-57
2022/06/25 17:47:27;;;;;;;3.40;1.40;;;18.50;94.70;;;;;;20807329;28;20033;-56
2022/06/25 17:57:30;;;;;;;2.10;1.50;;;18.10;94.80;;;;;;20847977;28;20384;-56
2022/06/25 18:07:32;;;;;;;2.33;1.50;;;17.40;96.50;;;;;;20889204;28;20480;-56
2022/06/25 18:17:35;;;;;;;4.78;2.03;;;16.90;98.10;;;;;;20929143;28;20057;-54
2022/06/25 18:27:37;;;;;;;2.20;1.83;;;16.50;99.10;;;;;;20969347;28;20033;-53
2022/06/25 18:37:40;;;;;;;6.32;1.70;;;16.20;99.80;;;;;;20968839;28;20036;-56
2022/06/25 18:47:42;;;;;;;4.72;2.45;;;16.10;99.90;;;;;;20968498;28;20033;-54
2022/06/25 18:57:45;;;;;;;4.07;2.20;;;15.90;99.90;;;;;;20923568;28;20376;-53
2022/06/25 19:07:48;;;;;;;3.58;2.00;;;15.70;99.90;;;;;;20883094;28;20033;-54
2022/06/25 19:17:53;;;;;;;5.53;2.55;;;15.50;99.90;;;;;;20883519;28;20045;-54
2022/06/25 19:27:56;;;;;;;2.50;1.40;;;15.30;99.90;;;;;;20883999;28;20041;-69
2022/06/25 19:37:59;;;;;;;4.43;2.17;;;15.30;99.90;;;;;;20871272;28;20392;-68
2022/06/25 19:48:02;;;;;;;5.07;2.40;;;15.30;99.90;;;;;;20899435;28;20036;-70
2022/06/25 19:58:06;;;;;;;5.47;2.20;;;15.40;99.90;;;;;;20943930;28;20041;-69
2022/06/25 20:08:09;;;;;;;3.22;1.95;;;15.30;99.90;;;;;;20980099;28;20033;-70
2022/06/25 20:18:12;;;;;;;3.70;2.00;;;15.10;99.90;;;;;;20978735;28;20044;-69
2022/06/25 20:28:15;;;;;;;4.53;2.40;;;14.90;99.90;;;;;;20980185;28;20543;-69
2022/06/25 20:38:18;;;;;;;6.18;2.60;;;14.90;99.90;;;;;;20916132;28;20098;-70
2022/06/25 20:48:20;;;;;;;3.35;1.70;;;14.90;99.90;;;;;;20894320;28;20041;-65
2022/06/25 20:58:24;;;;;;;2.72;1.88;;;15.20;99.90;;;;;;20942170;28;20036;-65
2022/06/25 21:08:28;;;;;;;4.47;1.50;;;15.10;99.90;;;;;;20930045;28;20102;-65
2022/06/25 21:18:31;;;;;;;1.67;1.10;;;15.10;99.90;;;;;;20891557;28;20459;-67
2022/06/25 21:28:33;;;;;;;4.82;1.60;;;15.10;99.90;;;;;;20891294;28;20040;-66
2022/06/25 21:38:36;;;;;;;3.10;1.65;;;15.30;99.90;;;;;;20946172;28;20236;-67
2022/06/25 21:48:38;;;;;;;4.32;2.20;;;15.30;99.90;;;;;;20972209;28;20040;-68
2022/06/25 21:58:42;;;;;;;2.03;1.23;;;15.20;99.90;;;;;;20970613;28;20494;-68
2022/06/25 22:08:44;;;;;;;2.55;1.30;;;15.00;99.90;;;;;;20952549;28;20095;-66
2022/06/25 22:18:47;;;;;;;6.85;1.92;;;14.80;99.90;;;;;;20932048;28;20407;-66
2022/06/25 22:28:49;;;;;;;2.50;1.50;;;14.60;99.90;;;;;;20969349;28;20032;-66
2022/06/25 22:38:52;;;;;;;4.22;1.52;;;14.70;99.90;;;;;;20985865;28;20063;-66
2022/06/25 22:48:54;;;;;;;4.32;2.10;;;14.40;99.90;;;;;;20968258;28;20028;-63
2022/06/25 22:58:58;;;;;;;2.45;1.30;;;14.40;99.90;;;;;;20951563;28;20036;-67
2022/06/25 23:09:00;;;;;;;5.88;1.63;;;14.30;99.90;;;;;;20936209;28;20400;-67
2022/06/25 23:19:03;;;;;;;8.52;1.67;;;14.10;99.90;;;;;;20884072;28;20103;-65
2022/06/25 23:29:05;;;;;;;3.88;1.50;;;13.80;99.90;;;;;;20884054;28;20444;-65
2022/06/25 23:39:08;;;;;;;3.38;1.45;;;13.60;99.90;;;;;;20867164;28;20068;-68
2022/06/25 23:49:11;;;;;;;2.70;1.83;;;13.50;99.90;;;;;;20883430;28;20034;-65
2022/06/25 23:59:14;;;;;;;2.70;1.73;;;13.50;99.90;;;;;;20939229;28;20036;-66
